Time;durP1;ratioP1;P1;durP2;ratioP2;P2;SDS_P1;SDS_P2;PMS_P1;PMS_P2;Temp;Humidity;BMP_temperature;BMP_pressure;BME280_temperature;BME280_humidity;BME280_pressure;Samples;Min_cycle;Max_cycle;Signal;HPM_P1;HPM_P2
2021/07/07 00:02:03;;;;;;;1999.90;999.90;;;;;;;16.76;48.07;100935.09;5006673;27;97314;-70
2021/07/07 00:04:31;;;;;;;1999.90;999.90;;;;;;;16.76;47.98;100953.91;5002331;27;97831;-70
2021/07/07 00:06:58;;;;;;;1999.90;999.90;;;;;;;16.75;47.82;100949.41;5005882;27;99064;-69
2021/07/07 00:09:26;;;;;;;1999.90;999.90;;;;;;;16.73;47.40;100938.69;5009717;27;96647;-70
2021/07/07 00:11:54;;;;;;;1999.90;999.90;;;;;;;16.75;47.55;100930.59;4986277;28;97448;-69
2021/07/07 00:14:21;;;;;;;1999.90;999.90;;;;;;;16.78;47.63;100946.75;5002374;27;102018;-70
2021/07/07 00:16:49;;;;;;;1999.90;999.90;;;;;;;16.78;47.33;100946.75;5006938;27;102921;-70
2021/07/07 00:19:19;;;;;;;1999.90;999.90;;;;;;;16.74;47.20;100950.34;5008854;27;98806;-69
2021/07/07 00:21:46;;;;;;;1999.90;999.90;;;;;;;16.72;47.11;100953.03;5034497;27;97508;-70
2021/07/07 00:24:14;;;;;;;1999.90;999.90;;;;;;;16.69;47.15;100952.09;5006243;27;99059;-70
2021/07/07 00:26:42;;;;;;;1999.90;999.90;;;;;;;16.66;47.16;100944.94;5005695;27;97813;-69
2021/07/07 00:29:10;;;;;;;1999.90;999.90;;;;;;;16.54;47.27;100947.59;4990078;28;97595;-70
2021/07/07 00:31:38;;;;;;;1999.90;999.90;;;;;;;16.50;47.03;100940.47;5006677;27;97443;-70
2021/07/07 00:34:06;;;;;;;1999.90;999.90;;;;;;;16.51;46.84;100933.28;4991219;28;98895;-70
2021/07/07 00:36:35;;;;;;;1999.90;999.90;;;;;;;16.49;46.73;100922.53;5006567;27;99446;-70
2021/07/07 00:39:04;;;;;;;1999.90;999.90;;;;;;;16.51;46.92;100926.13;5004860;27;97591;-70
2021/07/07 00:41:31;;;;;;;1999.90;999.90;;;;;;;16.55;46.93;100938.66;5009339;27;97341;-70
2021/07/07 00:43:59;;;;;;;1999.90;999.90;;;;;;;16.55;46.92;100940.44;5004193;27;99968;-70
2021/07/07 00:46:27;;;;;;;1999.90;999.90;;;;;;;16.54;46.61;100941.38;5005611;27;98787;-69
2021/07/07 00:48:55;;;;;;;1999.90;999.90;;;;;;;16.53;46.43;100945.81;5005657;27;97939;-70
2021/07/07 00:51:23;;;;;;;1999.90;999.90;;;;;;;16.53;46.59;100935.09;5006015;27;97121;-70
2021/07/07 00:53:55;;;;;;;1999.90;999.90;;;;;;;16.55;46.32;100932.38;5004731;27;97680;-70
2021/07/07 00:56:23;;;;;;;1999.90;999.90;;;;;;;16.56;46.22;100928.81;5004342;27;98547;-70
2021/07/07 00:58:54;;;;;;;1999.90;999.90;;;;;;;16.57;46.35;100922.53;5005115;27;97321;-70
2021/07/07 01:01:22;;;;;;;1999.90;999.90;;;;;;;16.58;46.62;100921.66;5002372;27;97313;-69
2021/07/07 01:03:50;;;;;;;1999.90;999.90;;;;;;;16.61;46.53;100932.38;5003877;27;98852;-71
2021/07/07 01:06:18;;;;;;;1999.90;999.90;;;;;;;16.60;46.45;100920.75;5004669;27;97661;-70
2021/07/07 01:08:45;;;;;;;1999.90;999.90;;;;;;;16.63;46.48;100925.22;5004664;27;96950;-69
2021/07/07 01:11:14;;;;;;;1999.90;999.90;;;;;;;16.64;46.24;100921.63;5006045;27;97336;-70
2021/07/07 01:13:42;;;;;;;1999.90;999.90;;;;;;;16.66;46.19;100915.38;5002142;27;98049;-70
2021/07/07 01:16:10;;;;;;;1999.90;999.90;;;;;;;16.68;46.22;100920.72;5007511;27;98853;-70
2021/07/07 01:18:39;;;;;;;1999.90;999.90;;;;;;;16.71;46.34;100918.06;5013411;27;98036;-70
2021/07/07 01:21:07;;;;;;;1999.90;999.90;;;;;;;16.71;46.43;100926.13;5005616;27;97889;-70
2021/07/07 01:23:36;;;;;;;1999.90;999.90;;;;;;;16.69;46.32;100938.66;5009317;27;99157;-69
2021/07/07 01:26:04;;;;;;;1999.90;999.90;;;;;;;16.64;46.26;100949.41;5003559;27;100129;-71
2021/07/07 01:28:32;;;;;;;1999.90;999.90;;;;;;;16.57;45.97;100944.03;5006471;27;97624;-71
2021/07/07 01:31:00;;;;;;;1999.90;999.90;;;;;;;16.54;46.06;100938.69;4986483;27;97401;-70
2021/07/07 01:33:28;;;;;;;1999.90;999.90;;;;;;;16.54;46.38;100934.16;5002550;27;99270;-70
2021/07/07 01:35:55;;;;;;;1999.90;999.90;;;;;;;16.52;46.25;100927.03;5005445;27;98825;-71
2021/07/07 01:38:23;;;;;;;1999.90;999.90;;;;;;;16.53;46.45;100910.00;5004424;27;98056;-70
2021/07/07 01:40:55;;;;;;;1999.90;999.90;;;;;;;16.51;46.17;100898.34;5015266;27;98058;-69
2021/07/07 01:43:23;;;;;;;1999.90;999.90;;;;;;;16.55;46.07;100902.84;4999690;27;99515;-70
2021/07/07 01:45:51;;;;;;;1999.90;999.90;;;;;;;16.54;46.30;100911.81;5007605;27;99184;-67
2021/07/07 01:48:19;;;;;;;1999.90;999.90;;;;;;;16.55;46.10;100929.69;5007582;27;97775;-70
2021/07/07 01:50:47;;;;;;;1999.90;999.90;;;;;;;16.52;46.35;100937.78;5006858;27;97381;-71
2021/07/07 01:53:16;;;;;;;1999.90;999.90;;;;;;;16.48;46.08;100926.16;5005408;27;99603;-70
2021/07/07 01:55:43;;;;;;;1999.90;999.90;;;;;;;16.46;46.09;100921.66;5006640;27;98708;-69
2021/07/07 01:58:12;;;;;;;1999.90;999.90;;;;;;;16.45;46.04;100919.88;4984720;27;97102;-70
2021/07/07 02:00:40;;;;;;;1999.90;999.90;;;;;;;16.42;46.23;100895.69;5002121;27;98295;-69
2021/07/07 02:03:08;;;;;;;1999.90;999.90;;;;;;;16.40;46.14;100882.25;5009747;27;103399;-71
2021/07/07 02:05:37;;;;;;;1999.90;999.90;;;;;;;16.43;46.29;100903.78;5005756;27;100611;-71
2021/07/07 02:08:07;;;;;;;1999.90;999.90;;;;;;;16.41;46.29;100908.25;5000961;27;97535;-71
2021/07/07 02:10:35;;;;;;;1999.90;999.90;;;;;;;16.39;46.24;100904.66;5005252;27;97864;-71
2021/07/07 02:13:04;;;;;;;1999.90;999.90;;;;;;;16.36;46.15;100914.50;5001745;27;98417;-70
2021/07/07 02:15:35;;;;;;;1999.90;999.90;;;;;;;16.34;46.29;100900.19;5003556;27;97758;-70
2021/07/07 02:18:04;;;;;;;1999.90;999.90;;;;;;;16.35;46.39;100896.59;5003841;27;97412;-71
2021/07/07 02:20:33;;;;;;;1999.90;999.90;;;;;;;16.35;46.58;100889.44;5003321;27;99376;-70
2021/07/07 02:23:01;;;;;;;1999.90;999.90;;;;;;;16.38;46.77;100880.50;5001189;27;99132;-70
2021/07/07 02:25:31;;;;;;;1999.90;999.90;;;;;;;16.38;46.74;100894.78;5001000;27;97776;-71
2021/07/07 02:27:59;;;;;;;1999.90;999.90;;;;;;;16.38;46.90;100896.59;5000822;27;97664;-71
2021/07/07 02:30:29;;;;;;;1999.90;999.90;;;;;;;16.37;46.70;100910.91;5002151;27;97899;-69
2021/07/07 02:32:59;;;;;;;1999.90;999.90;;;;;;;16.37;46.61;100918.97;5013328;27;101494;-70
2021/07/07 02:35:31;;;;;;;1999.90;999.90;;;;;;;16.35;46.94;100931.50;5000327;27;99339;-70
2021/07/07 02:37:59;;;;;;;1999.90;999.90;;;;;;;16.36;46.88;100919.88;5002838;27;97203;-71
2021/07/07 02:40:28;;;;;;;1999.90;999.90;;;;;;;16.36;47.36;100903.78;5006791;27;97990;-71
2021/07/07 02:42:56;;;;;;;1999.90;999.90;;;;;;;16.36;47.11;100896.59;5000396;27;100145;-71
2021/07/07 02:45:25;;;;;;;1999.90;999.90;;;;;;;16.36;47.20;100904.63;5004027;27;97932;-69
2021/07/07 02:47:53;;;;;;;1999.90;999.90;;;;;;;16.37;47.46;100905.53;5000187;27;97516;-71
2021/07/07 02:50:24;;;;;;;1999.90;999.90;;;;;;;16.35;47.64;100918.06;5001797;27;97429;-71
2021/07/07 02:52:52;;;;;;;1999.90;999.90;;;;;;;16.34;47.68;100930.63;5004403;27;100420;-70
2021/07/07 02:55:22;;;;;;;1999.90;999.90;;;;;;;16.33;47.65;100919.88;5002187;27;99438;-70
2021/07/07 02:57:59;;;;;;;1999.90;999.90;;;;;;;16.32;47.58;100923.47;5032888;27;97834;-71
2021/07/07 03:00:32;;;;;;;1999.90;999.90;;;;;;;16.31;47.56;100929.72;5001803;27;97024;-71
2021/07/07 03:03:03;;;;;;;1999.90;999.90;;;;;;;16.30;47.83;100930.63;5003208;27;99387;-69
2021/07/07 03:05:35;;;;;;;1999.90;999.90;;;;;;;16.31;47.89;100924.34;5002431;27;101571;-70
2021/07/07 03:08:03;;;;;;;1999.90;999.90;;;;;;;16.30;48.17;100901.97;5001989;27;97411;-68
2021/07/07 03:10:31;;;;;;;1999.90;999.90;;;;;;;16.30;48.08;100909.13;4994190;27;97023;-69
2021/07/07 03:12:59;;;;;;;1999.90;999.90;;;;;;;16.28;48.40;100932.41;5005155;27;97737;-69
2021/07/07 03:15:27;;;;;;;1999.90;999.90;;;;;;;16.28;48.46;100927.03;5004656;27;98003;-70
2021/07/07 03:17:55;;;;;;;1999.90;999.90;;;;;;;16.27;48.58;100926.13;5004156;27;96842;-69
2021/07/07 03:20:23;;;;;;;1999.90;999.90;;;;;;;16.30;48.18;100941.38;5006021;27;97690;-71
2021/07/07 03:22:52;;;;;;;1999.90;999.90;;;;;;;16.30;48.22;100946.72;5001505;27;99262;-70
2021/07/07 03:25:20;;;;;;;1999.90;999.90;;;;;;;16.29;48.12;100955.69;5002154;27;100949;-71
2021/07/07 03:27:49;;;;;;;1999.90;999.90;;;;;;;16.27;48.24;100963.72;5006951;27;97076;-68
2021/07/07 03:30:18;;;;;;;1999.90;999.90;;;;;;;16.27;48.09;100960.16;4999794;27;97835;-69
2021/07/07 03:32:46;;;;;;;1999.90;999.90;;;;;;;16.26;48.48;100961.03;4993053;27;100466;-68
2021/07/07 03:35:14;;;;;;;1999.90;999.90;;;;;;;16.25;48.50;100954.78;5009652;27;97839;-69
2021/07/07 03:37:42;;;;;;;1999.90;999.90;;;;;;;16.27;48.62;100966.41;5010561;27;97640;-70
2021/07/07 03:40:13;;;;;;;1999.90;999.90;;;;;;;16.25;48.79;100968.19;5004488;27;97475;-70
2021/07/07 03:42:41;;;;;;;1999.90;999.90;;;;;;;16.25;48.91;100953.91;5000603;27;98038;-71
2021/07/07 03:45:11;;;;;;;1999.90;999.90;;;;;;;16.26;48.94;100948.53;5008028;27;98033;-69
2021/07/07 03:47:39;;;;;;;1999.90;999.90;;;;;;;16.29;48.70;100961.06;5001379;27;97944;-70
2021/07/07 03:50:09;;;;;;;1999.90;999.90;;;;;;;16.29;48.71;100961.06;5007823;27;97809;-70
2021/07/07 03:52:37;;;;;;;1999.90;999.90;;;;;;;16.28;49.06;100949.44;5009523;27;98914;-70
2021/07/07 03:55:06;;;;;;;1999.90;999.90;;;;;;;16.26;48.95;100947.63;5012721;27;99682;-69
2021/07/07 03:57:35;;;;;;;1999.90;999.90;;;;;;;16.23;49.00;100967.34;5007559;27;96839;-69
2021/07/07 04:00:06;;;;;;;1999.90;999.90;;;;;;;16.23;49.03;100988.81;5008314;27;97033;-70
2021/07/07 04:02:38;;;;;;;1999.90;999.90;;;;;;;15.83;49.78;101008.38;5006724;27;100673;-70
2021/07/07 04:05:07;;;;;;;1999.90;999.90;;;;;;;16.02;49.36;101008.44;5006480;27;97631;-70
2021/07/07 04:07:35;;;;;;;1999.90;999.90;;;;;;;16.04;49.39;101013.81;5006623;27;97541;-70
2021/07/07 04:10:04;;;;;;;1999.90;999.90;;;;;;;16.07;49.52;101008.44;5008589;27;97246;-69
2021/07/07 04:12:32;;;;;;;1999.90;999.90;;;;;;;16.07;49.55;101009.34;5008060;27;97836;-69
2021/07/07 04:15:01;;;;;;;1999.90;999.90;;;;;;;16.05;49.44;101011.13;5007864;27;99741;-69
2021/07/07 04:17:29;;;;;;;1999.90;999.90;;;;;;;16.05;49.36;101035.28;5005348;27;97165;-68
2021/07/07 04:19:57;;;;;;;1999.90;999.90;;;;;;;16.05;49.45;101012.91;4989639;28;99005;-69
2021/07/07 04:22:24;;;;;;;1999.90;999.90;;;;;;;16.05;49.59;101020.97;5006201;27;97982;-69
2021/07/07 04:24:52;;;;;;;1999.90;999.90;;;;;;;16.05;49.94;101012.91;5005618;27;99212;-67
2021/07/07 04:27:20;;;;;;;1999.90;999.90;;;;;;;16.04;49.59;101025.47;5006569;27;96898;-69
2021/07/07 04:29:48;;;;;;;1999.90;999.90;;;;;;;16.06;49.87;101034.41;5008351;27;97182;-69
2021/07/07 04:32:17;;;;;;;1999.90;999.90;;;;;;;16.03;49.71;101045.13;5006998;27;98794;-69
2021/07/07 04:34:45;;;;;;;1999.90;999.90;;;;;;;16.05;49.87;101037.06;5011303;27;97958;-70
2021/07/07 04:37:13;;;;;;;1999.90;999.90;;;;;;;16.07;49.87;101041.56;5011095;27;98278;-69
2021/07/07 04:39:41;;;;;;;1999.90;999.90;;;;;;;16.06;49.84;101039.78;5021880;27;97686;-69
2021/07/07 04:42:09;;;;;;;1999.90;999.90;;;;;;;16.05;50.00;101043.34;5035875;27;99038;-69
2021/07/07 04:44:37;;;;;;;1999.90;999.90;;;;;;;16.01;50.10;101054.97;5012748;27;99194;-67
2021/07/07 04:47:04;;;;;;;1999.90;999.90;;;;;;;15.98;49.99;101072.81;5005753;27;97169;-70
2021/07/07 04:49:34;;;;;;;1999.90;999.90;;;;;;;15.94;50.24;101079.09;5015457;27;97220;-69
2021/07/07 04:52:02;;;;;;;1999.90;999.90;;;;;;;15.92;50.09;101075.50;5014249;27;98555;-70
2021/07/07 04:54:32;;;;;;;1999.90;999.90;;;;;;;15.92;50.50;101054.91;5019473;27;97418;-69
2021/07/07 04:56:59;;;;;;;1999.90;999.90;;;;;;;15.92;50.56;101049.53;5008461;27;98354;-68
2021/07/07 04:59:27;;;;;;;1999.90;999.90;;;;;;;15.93;50.78;101045.06;5008333;27;97187;-69
2021/07/07 05:01:55;;;;;;;1999.90;999.90;;;;;;;15.92;50.37;101046.84;5013114;27;98105;-69
2021/07/07 05:04:23;;;;;;;1999.90;999.90;;;;;;;15.94;50.48;101053.13;5008831;27;97656;-68
2021/07/07 05:06:52;;;;;;;1999.90;999.90;;;;;;;15.95;50.40;101059.41;5011644;27;97569;-69
2021/07/07 05:09:20;;;;;;;1999.90;999.90;;;;;;;15.93;50.46;101067.44;5016838;27;97569;-68
2021/07/07 05:11:48;;;;;;;1999.90;999.90;;;;;;;15.92;50.55;101057.59;5006337;27;99115;-68
2021/07/07 05:14:16;;;;;;;1999.90;999.90;;;;;;;15.89;50.28;101073.69;5015221;27;98022;-68
2021/07/07 05:16:43;;;;;;;1999.90;999.90;;;;;;;15.81;50.27;101075.44;4990492;27;97183;-68
2021/07/07 05:19:11;;;;;;;1999.90;999.90;;;;;;;15.81;50.33;101067.38;5004817;27;97108;-68
2021/07/07 05:21:39;;;;;;;1999.90;999.90;;;;;;;15.85;50.47;101077.25;5007680;27;97460;-69
2021/07/07 05:24:08;;;;;;;1999.90;999.90;;;;;;;15.89;50.84;101070.09;5002402;27;97973;-69
2021/07/07 05:26:36;;;;;;;1999.90;999.90;;;;;;;15.93;50.49;101086.22;5002395;27;98332;-69
2021/07/07 05:29:04;;;;;;;1999.90;999.90;;;;;;;15.93;50.37;101102.34;5004461;27;97256;-69
2021/07/07 05:31:33;;;;;;;1999.90;999.90;;;;;;;15.93;50.45;101107.72;4999214;27;99999;-69
2021/07/07 05:34:01;;;;;;;1999.90;999.90;;;;;;;15.92;50.26;101097.84;5016133;27;99278;-68
2021/07/07 05:36:28;;;;;;;1999.90;999.90;;;;;;;15.93;50.44;101101.44;5008374;27;97425;-69
2021/07/07 05:38:56;;;;;;;1999.90;999.90;;;;;;;15.94;50.76;101109.50;5004203;27;97611;-69
2021/07/07 05:41:25;;;;;;;1999.90;999.90;;;;;;;15.91;50.71;101122.91;5001331;27;99131;-68
2021/07/07 05:43:54;;;;;;;1999.90;999.90;;;;;;;15.88;50.90;101120.22;5005711;27;97570;-68
2021/07/07 05:46:22;;;;;;;1999.90;999.90;;;;;;;15.86;51.05;101127.38;5002365;27;97305;-69
2021/07/07 05:48:50;;;;;;;1999.90;999.90;;;;;;;15.87;51.06;101131.81;5005535;27;97469;-68
2021/07/07 05:51:18;;;;;;;1999.90;999.90;;;;;;;15.89;50.88;101126.47;5004011;27;97117;-69
2021/07/07 05:53:45;;;;;;;1999.90;999.90;;;;;;;15.90;50.94;101128.28;5009132;27;97857;-69
2021/07/07 05:56:13;;;;;;;1999.90;999.90;;;;;;;15.93;50.85;101122.91;5004873;27;97380;-69
2021/07/07 05:58:42;;;;;;;1999.90;999.90;;;;;;;15.95;50.98;101116.66;5006815;27;96974;-68
2021/07/07 06:01:10;;;;;;;1999.90;999.90;;;;;;;15.95;51.10;101116.66;5005302;27;97722;-68
2021/07/07 06:03:38;;;;;;;1999.90;999.90;;;;;;;15.97;51.24;101108.63;5007838;27;97753;-68
2021/07/07 06:06:06;;;;;;;1999.90;999.90;;;;;;;16.03;51.49;101097.94;5011333;27;97870;-68
2021/07/07 06:08:34;;;;;;;1999.90;999.90;;;;;;;16.04;51.34;101115.84;5010516;27;98400;-68
2021/07/07 06:11:03;;;;;;;1999.90;999.90;;;;;;;16.06;51.43;101136.44;5001292;27;97930;-68
2021/07/07 06:13:31;;;;;;;1999.90;999.90;;;;;;;16.08;51.22;101134.66;5008650;27;98910;-68
2021/07/07 06:16:00;;;;;;;1999.90;999.90;;;;;;;16.10;51.16;101116.75;5004844;27;97504;-68
2021/07/07 06:18:28;;;;;;;1999.90;999.90;;;;;;;16.14;51.47;101101.56;5008127;27;99363;-68
2021/07/07 06:20:57;;;;;;;1999.90;999.90;;;;;;;16.18;51.40;101094.41;5000067;27;97713;-68
2021/07/07 06:23:24;;;;;;;1999.90;999.90;;;;;;;16.20;51.44;101114.09;5019400;27;100280;-69
2021/07/07 06:25:52;;;;;;;1999.90;999.90;;;;;;;16.21;51.71;101145.44;4990435;27;97360;-68
2021/07/07 06:28:20;;;;;;;1999.90;999.90;;;;;;;16.23;51.84;101149.03;5012660;27;96836;-68
2021/07/07 06:30:47;;;;;;;1999.90;999.90;;;;;;;16.23;51.63;101132.91;5001513;27;99217;-68
2021/07/07 06:33:17;;;;;;;1999.90;999.90;;;;;;;16.27;51.93;101130.22;5006739;27;100605;-69
2021/07/07 06:35:45;;;;;;;1999.90;999.90;;;;;;;16.30;51.70;101140.09;5006841;27;97045;-68
2021/07/07 06:38:11;;;;;;;1999.90;999.90;;;;;;;16.28;51.79;101142.78;5003225;27;98155;-69
2021/07/07 06:40:39;;;;;;;1999.90;999.90;;;;;;;16.28;51.80;101141.88;5005133;27;98571;-67
2021/07/07 06:43:07;;;;;;;1999.90;999.90;;;;;;;16.27;51.78;101158.91;5007657;27;99036;-69
2021/07/07 06:45:37;;;;;;;1999.90;999.90;;;;;;;16.24;52.02;101154.41;5005147;27;97954;-69
2021/07/07 06:48:06;;;;;;;1999.90;999.90;;;;;;;16.24;52.27;101148.13;5006785;27;97717;-68
2021/07/07 06:50:36;;;;;;;1999.90;999.90;;;;;;;16.26;52.12;101154.41;5005837;27;98528;-67
2021/07/07 06:53:05;;;;;;;1999.90;999.90;;;;;;;16.26;52.02;101171.41;4988370;27;98436;-69
2021/07/07 06:55:32;;;;;;;1999.90;999.90;;;;;;;16.27;52.39;101189.31;5004596;27;97652;-69
2021/07/07 06:58:00;;;;;;;1999.90;999.90;;;;;;;16.26;52.16;101181.25;5004843;27;97752;-68
2021/07/07 07:00:28;;;;;;;1999.90;999.90;;;;;;;16.28;52.25;101166.97;5001902;27;97149;-69
2021/07/07 07:02:56;;;;;;;1999.90;999.90;;;;;;;16.31;52.49;101169.63;5001117;27;100279;-68
2021/07/07 07:05:24;;;;;;;1999.90;999.90;;;;;;;16.34;52.21;101179.50;5003938;27;97653;-69
2021/07/07 07:07:53;;;;;;;1999.90;999.90;;;;;;;16.37;52.09;101184.88;5007720;27;98394;-69
2021/07/07 07:10:21;;;;;;;1999.90;999.90;;;;;;;16.39;52.29;101177.72;5015873;27;98101;-71
2021/07/07 07:12:49;;;;;;;1999.90;999.90;;;;;;;16.42;52.33;101183.09;5004212;27;99495;-68
2021/07/07 07:15:17;;;;;;;1999.90;999.90;;;;;;;16.42;52.27;101196.53;4986240;27;97990;-70
2021/07/07 07:17:45;;;;;;;1999.90;999.90;;;;;;;16.45;52.13;101188.50;5002606;27;97525;-70
2021/07/07 07:20:15;;;;;;;1999.90;999.90;;;;;;;16.47;52.02;101182.22;5011980;27;97929;-68
2021/07/07 07:22:43;;;;;;;1999.90;999.90;;;;;;;16.50;52.01;101198.38;4983661;27;98920;-70
2021/07/07 07:25:14;;;;;;;1999.90;999.90;;;;;;;16.52;51.80;101203.75;4988331;27;97722;-69
2021/07/07 07:27:41;;;;;;;1999.90;999.90;;;;;;;16.49;51.93;101206.44;5013467;27;98179;-70
2021/07/07 07:30:10;;;;;;;1999.90;999.90;;;;;;;16.51;52.26;101223.44;4998437;27;98036;-70
2021/07/07 07:32:47;;;;;;;1999.90;999.90;;;;;;;16.56;51.71;101235.13;5003980;27;97714;-69
2021/07/07 07:35:16;;;;;;;1999.90;999.90;;;;;;;16.57;51.68;101248.56;5001832;27;97374;-68
2021/07/07 07:37:49;;;;;;;1999.90;999.90;;;;;;;16.57;51.27;101236.91;5007160;27;98186;-69
2021/07/07 07:40:23;;;;;;;1999.90;999.90;;;;;;;16.55;51.73;101231.53;4998278;27;97660;-69
2021/07/07 07:42:51;;;;;;;1999.90;999.90;;;;;;;16.56;51.56;101227.94;5003909;27;98724;-69
2021/07/07 07:45:21;;;;;;;1999.90;999.90;;;;;;;16.61;50.88;101222.59;4998679;27;97574;-70
2021/07/07 07:47:49;;;;;;;1999.90;999.90;;;;;;;16.61;50.95;101207.38;5000935;28;97642;-69
2021/07/07 07:50:17;;;;;;;1999.90;999.90;;;;;;;16.62;50.78;101202.88;5030241;27;100660;-69
2021/07/07 07:52:45;;;;;;;1999.90;999.90;;;;;;;16.62;50.48;101202.88;4997315;28;99612;-69
2021/07/07 07:55:14;;;;;;;1999.90;999.90;;;;;;;16.59;50.22;101192.13;5003515;27;97764;-69
2021/07/07 07:57:44;;;;;;;1999.90;999.90;;;;;;;16.52;50.31;101199.28;4998952;27;96378;-69
2021/07/07 08:00:13;;;;;;;1999.90;999.90;;;;;;;16.49;50.15;101206.44;4986615;27;97687;-68
2021/07/07 08:02:41;;;;;;;1999.90;999.90;;;;;;;16.50;50.14;101213.59;5000672;27;98514;-69
2021/07/07 08:05:11;;;;;;;1999.90;999.90;;;;;;;16.46;50.13;101203.72;5005070;27;98023;-69
2021/07/07 08:07:38;;;;;;;1999.90;999.90;;;;;;;16.45;50.02;101207.31;5007153;27;97345;-70
2021/07/07 08:10:08;;;;;;;1999.90;999.90;;;;;;;16.43;50.30;101207.31;4987823;27;99112;-70
2021/07/07 08:12:36;;;;;;;1999.90;999.90;;;;;;;16.48;50.14;101212.69;5005621;27;98584;-70
2021/07/07 08:15:07;;;;;;;1999.90;999.90;;;;;;;16.52;50.36;101211.81;5001153;27;99476;-70
2021/07/07 08:17:36;;;;;;;1999.90;999.90;;;;;;;16.53;50.30;101216.28;5004212;27;97671;-70
2021/07/07 08:20:05;;;;;;;1999.90;999.90;;;;;;;16.52;50.43;101234.22;5003464;27;97699;-70
2021/07/07 08:22:33;;;;;;;1999.90;999.90;;;;;;;16.52;49.86;101249.44;4999071;27;99594;-70
2021/07/07 08:25:01;;;;;;;1999.90;999.90;;;;;;;16.55;50.09;101254.81;5002241;27;97029;-69
2021/07/07 08:27:29;;;;;;;1999.90;999.90;;;;;;;16.58;49.78;101254.84;5004090;27;97484;-69
2021/07/07 08:29:56;;;;;;;1999.90;999.90;;;;;;;16.60;49.82;101255.72;5001170;27;97109;-70
2021/07/07 08:32:25;;;;;;;1999.90;999.90;;;;;;;16.64;49.68;101261.13;5007418;27;97841;-70
2021/07/07 08:34:56;;;;;;;1999.90;999.90;;;;;;;16.65;49.65;101272.78;5011905;27;97563;-70
2021/07/07 08:37:24;;;;;;;1999.90;999.90;;;;;;;16.65;49.79;101288.91;5010968;27;97791;-70
2021/07/07 08:39:52;;;;;;;1999.90;999.90;;;;;;;16.67;49.46;101297.88;5009342;27;101337;-70
2021/07/07 08:42:20;;;;;;;1999.90;999.90;;;;;;;16.70;49.38;101290.75;5034231;27;99413;-70
2021/07/07 08:44:48;;;;;;;1999.90;999.90;;;;;;;16.71;49.58;101279.09;5011519;27;98225;-70
2021/07/07 08:47:15;;;;;;;1999.90;999.90;;;;;;;16.75;49.67;101283.59;5006133;27;97223;-69
2021/07/07 08:49:44;;;;;;;1999.90;999.90;;;;;;;16.76;49.67;101284.50;5007371;27;100609;-70
2021/07/07 08:52:12;;;;;;;1999.90;999.90;;;;;;;16.77;49.53;101287.19;5010593;27;97367;-69
2021/07/07 08:54:40;;;;;;;1999.90;999.90;;;;;;;16.80;49.53;101287.19;5008836;27;97885;-70
2021/07/07 08:57:08;;;;;;;1999.90;999.90;;;;;;;16.84;49.26;101293.47;5008318;27;97948;-70
2021/07/07 08:59:36;;;;;;;1999.90;999.90;;;;;;;16.81;49.35;101290.78;5005178;27;99404;-70
2021/07/07 09:02:06;;;;;;;1999.90;999.90;;;;;;;16.80;49.10;101278.22;4986715;27;97904;-69
2021/07/07 09:04:35;;;;;;;1999.90;999.90;;;;;;;16.74;49.26;101278.22;5008676;27;97860;-69
2021/07/07 09:07:05;;;;;;;1999.90;999.90;;;;;;;16.76;49.32;101281.81;5005947;27;98169;-70
2021/07/07 09:09:41;;;;;;;1999.90;999.90;;;;;;;16.77;49.20;101275.53;5003725;27;99787;-70
2021/07/07 09:12:14;;;;;;;1999.90;999.90;;;;;;;16.78;49.25;101277.34;5009643;27;99300;-71
2021/07/07 09:14:43;;;;;;;1999.90;999.90;;;;;;;16.80;49.13;101280.91;5008537;27;97455;-70
2021/07/07 09:17:12;;;;;;;1999.90;999.90;;;;;;;16.80;48.92;101280.91;5035157;27;97554;-69
2021/07/07 09:19:41;;;;;;;1999.90;999.90;;;;;;;16.80;48.81;101278.22;5016353;27;98439;-69
2021/07/07 09:22:11;;;;;;;1999.90;999.90;;;;;;;16.81;49.07;101280.03;5004503;27;98409;-69
2021/07/07 09:24:41;;;;;;;1999.90;999.90;;;;;;;16.82;48.85;101288.09;5004073;27;97309;-69
2021/07/07 09:27:10;;;;;;;1999.90;999.90;;;;;;;16.85;48.79;101287.22;5008989;27;97389;-69
2021/07/07 09:29:39;;;;;;;1999.90;999.90;;;;;;;16.86;49.08;101292.59;4990707;28;99735;-69
2021/07/07 09:32:12;;;;;;;1999.90;999.90;;;;;;;16.90;48.91;101297.09;5006750;27;99325;-70
2021/07/07 09:34:41;;;;;;;1999.90;999.90;;;;;;;17.00;48.86;101308.75;5018524;27;97767;-69
2021/07/07 09:37:10;;;;;;;1999.90;999.90;;;;;;;16.98;48.88;101306.06;5006529;27;97013;-70
2021/07/07 09:39:38;;;;;;;1999.90;999.90;;;;;;;17.00;48.81;101315.03;5012556;27;97617;-70
2021/07/07 09:42:06;;;;;;;1999.90;999.90;;;;;;;17.02;48.83;101320.41;4998804;27;97729;-70
2021/07/07 09:44:35;;;;;;;1999.90;999.90;;;;;;;17.12;48.85;101314.19;5005899;27;96703;-70
2021/07/07 09:47:05;;;;;;;1999.90;999.90;;;;;;;17.15;48.77;101308.81;5004040;27;96974;-70
2021/07/07 09:49:33;;;;;;;1999.90;999.90;;;;;;;17.19;48.86;101313.31;5003550;27;97223;-71
2021/07/07 09:52:01;;;;;;;1999.90;999.90;;;;;;;17.22;48.73;101317.81;5005712;27;99624;-71
2021/07/07 09:54:30;;;;;;;1999.90;999.90;;;;;;;17.25;48.32;101312.44;5010480;27;97375;-70
2021/07/07 09:56:58;;;;;;;1999.90;999.90;;;;;;;17.27;48.14;101318.72;5003708;27;97816;-70
2021/07/07 09:59:26;;;;;;;1999.90;999.90;;;;;;;17.36;48.01;101340.25;5003671;27;97785;-69
2021/07/07 10:01:54;;;;;;;1999.90;999.90;;;;;;;17.43;47.99;101336.72;5000278;27;99600;-69
2021/07/07 10:04:22;;;;;;;1999.90;999.90;;;;;;;17.51;48.09;101343.00;5009256;27;97859;-70
2021/07/07 10:06:50;;;;;;;1999.90;999.90;;;;;;;17.57;48.05;101334.94;5009703;27;97478;-69
2021/07/07 10:09:18;;;;;;;1999.90;999.90;;;;;;;17.57;47.80;101340.31;4989686;27;99277;-69
2021/07/07 10:11:48;;;;;;;1999.90;999.90;;;;;;;17.57;47.29;101314.31;5008417;27;99826;-69
2021/07/07 10:14:16;;;;;;;1999.90;999.90;;;;;;;17.61;47.40;101316.09;5003290;27;97289;-69
2021/07/07 10:16:44;;;;;;;1999.90;999.90;;;;;;;17.65;47.35;101309.84;5004507;27;97883;-69
2021/07/07 10:19:14;;;;;;;1999.90;999.90;;;;;;;17.67;47.67;101304.44;5004098;27;99283;-69
2021/07/07 10:21:41;;;;;;;1999.90;999.90;;;;;;;17.74;47.42;101298.16;5008043;27;97377;-69
2021/07/07 10:24:09;;;;;;;1999.90;999.90;;;;;;;17.81;47.72;101306.25;5001173;27;97093;-70
2021/07/07 10:26:38;;;;;;;1999.90;999.90;;;;;;;17.84;47.50;101308.00;5006968;27;97421;-69
2021/07/07 10:29:07;;;;;;;1999.90;999.90;;;;;;;17.88;47.66;101310.72;5008130;27;99228;-70
2021/07/07 10:31:46;;;;;;;1999.90;999.90;;;;;;;17.91;47.52;101309.84;5010496;27;97752;-70
2021/07/07 10:34:15;;;;;;;1999.90;999.90;;;;;;;17.96;47.62;101314.31;5015120;27;97675;-70
2021/07/07 10:36:43;;;;;;;1999.90;999.90;;;;;;;17.99;47.58;101308.00;5004247;27;98230;-70
2021/07/07 10:39:12;;;;;;;1999.90;999.90;;;;;;;18.02;47.29;101319.66;4989126;28;100512;-69
2021/07/07 10:41:59;;;;;;;1999.90;999.90;;;;;;;18.10;47.36;101310.72;5006712;27;98016;-70
2021/07/07 10:44:48;;;;;;;1999.90;999.90;;;;;;;18.22;47.40;101305.31;4991308;28;96996;-70
2021/07/07 10:47:39;;;;;;;1999.90;999.90;;;;;;;18.30;47.47;101320.56;5011695;27;97874;-70
2021/07/07 10:50:09;;;;;;;1999.90;999.90;;;;;;;18.36;47.06;101317.88;5004198;27;96830;-70
2021/07/07 10:52:43;;;;;;;1999.90;999.90;;;;;;;18.43;47.06;101316.03;5007320;27;98191;-69
2021/07/07 10:55:14;;;;;;;1999.90;999.90;;;;;;;18.49;46.66;101314.25;5033153;27;97790;-68